Time;durP1;ratioP1;P1;durP2;ratioP2;P2;SDS_P1;SDS_P2;PMS_P1;PMS_P2;Temp;Humidity;BMP_temperature;BMP_pressure;BME280_temperature;BME280_humidity;BME280_pressure;Samples;Min_cycle;Max_cycle;Signal;HPM_P1;HPM_P2
2023/09/03 00:00:31;;;;;;;3.75;2.63;;;19.10;99.90;;;;;;5011345;28;20026;-48
2023/09/03 00:02:57;;;;;;;4.32;2.50;;;19.10;99.90;;;;;;5011331;28;20034;-49
2023/09/03 00:05:23;;;;;;;2.75;2.30;;;19.00;99.90;;;;;;5011306;28;20025;-48
2023/09/03 00:07:50;;;;;;;3.30;3.03;;;19.00;99.90;;;;;;5011327;28;20040;-49
2023/09/03 00:10:16;;;;;;;4.45;2.65;;;18.90;99.90;;;;;;5012570;28;20026;-50
2023/09/03 00:12:42;;;;;;;7.25;3.08;;;18.90;99.90;;;;;;4994865;28;20029;-47
2023/09/03 00:15:08;;;;;;;3.78;2.40;;;18.80;99.90;;;;;;4994994;28;20033;-50
2023/09/03 00:17:34;;;;;;;3.92;2.50;;;18.80;99.90;;;;;;5011042;28;20517;-47
2023/09/03 00:20:00;;;;;;;5.65;2.92;;;18.80;99.90;;;;;;4994633;28;20097;-48
2023/09/03 00:22:25;;;;;;;3.13;2.75;;;18.80;99.90;;;;;;5010660;28;20018;-47
2023/09/03 00:24:51;;;;;;;5.57;3.03;;;18.80;99.90;;;;;;5011484;28;20026;-48
2023/09/03 00:27:16;;;;;;;3.58;3.15;;;18.80;99.90;;;;;;5011498;28;20018;-47
2023/09/03 00:29:43;;;;;;;8.70;3.15;;;18.70;99.90;;;;;;4994850;28;20100;-47
2023/09/03 00:32:08;;;;;;;4.28;2.60;;;18.70;99.90;;;;;;5012366;28;20038;-47
2023/09/03 00:34:34;;;;;;;3.58;3.05;;;18.70;99.90;;;;;;5010793;28;20072;-48
2023/09/03 00:36:59;;;;;;;7.90;3.08;;;18.70;99.90;;;;;;5010705;28;20034;-50
2023/09/03 00:39:25;;;;;;;4.18;3.60;;;18.70;99.90;;;;;;5012055;28;20022;-53
2023/09/03 00:41:51;;;;;;;8.25;3.67;;;18.70;99.90;;;;;;5010289;28;20101;-48
2023/09/03 00:44:16;;;;;;;4.60;3.35;;;18.70;99.90;;;;;;5010619;28;20397;-47
2023/09/03 00:46:42;;;;;;;6.07;4.18;;;18.60;99.90;;;;;;5010386;28;20026;-49
2023/09/03 00:49:10;;;;;;;4.05;2.90;;;18.60;99.90;;;;;;4994109;28;20053;-49
2023/09/03 00:51:36;;;;;;;7.03;4.22;;;18.50;99.90;;;;;;5010760;28;20750;-47
2023/09/03 00:54:03;;;;;;;7.32;3.90;;;18.60;99.90;;;;;;4994481;28;20125;-47
2023/09/03 00:56:29;;;;;;;9.18;3.83;;;18.60;99.90;;;;;;5010800;28;20029;-47
2023/09/03 00:58:56;;;;;;;6.90;4.30;;;18.60;99.90;;;;;;5010368;28;20026;-48
2023/09/03 01:01:22;;;;;;;6.40;4.10;;;18.70;99.90;;;;;;5010088;28;20485;-48
2023/09/03 01:03:48;;;;;;;7.57;4.18;;;18.70;99.90;;;;;;4994136;28;20048;-48
2023/09/03 01:06:14;;;;;;;8.73;3.50;;;18.70;99.90;;;;;;5011779;28;20026;-51
2023/09/03 01:08:40;;;;;;;3.38;3.17;;;18.60;99.90;;;;;;5010190;28;20037;-47
2023/09/03 01:11:35;;;;;;;3.70;3.40;;;18.90;99.90;;;;;;5011648;28;20401;-48
2023/09/03 01:14:13;;;;;;;4.90;3.55;;;18.50;99.90;;;;;;5015649;28;20033;-47
2023/09/03 01:17:03;;;;;;;6.25;3.53;;;18.50;99.90;;;;;;5014370;28;20030;-50
2023/09/03 01:19:49;;;;;;;5.53;3.42;;;18.50;99.90;;;;;;4976772;28;20037;-48
2023/09/03 01:22:27;;;;;;;5.63;3.95;;;18.50;99.90;;;;;;5014107;28;20321;-47
2023/09/03 01:25:26;;;;;;;6.22;3.13;;;18.60;99.90;;;;;;5014085;28;20033;-47
2023/09/03 01:28:07;;;;;;;8.73;3.22;;;18.60;99.90;;;;;;5014087;28;20036;-47
2023/09/03 01:30:33;;;;;;;8.20;3.65;;;18.50;99.90;;;;;;5013835;28;20033;-48
2023/09/03 01:33:00;;;;;;;5.13;3.22;;;18.40;99.90;;;;;;5013822;28;20110;-46
2023/09/03 01:35:27;;;;;;;7.15;3.42;;;18.30;99.90;;;;;;5014015;28;20468;-47
2023/09/03 01:37:53;;;;;;;5.55;3.28;;;18.30;99.90;;;;;;5015245;28;20096;-47
2023/09/03 01:40:18;;;;;;;3.35;2.90;;;18.20;99.90;;;;;;5013682;28;20022;-48
2023/09/03 01:42:44;;;;;;;3.42;3.05;;;18.10;99.90;;;;;;5014726;28;20033;-47
2023/09/03 01:45:10;;;;;;;3.80;3.17;;;18.10;99.90;;;;;;5013668;28;20100;-52
2023/09/03 01:47:42;;;;;;;5.75;2.97;;;18.10;99.90;;;;;;5013659;28;20033;-52
2023/09/03 01:50:42;;;;;;;6.03;3.67;;;18.10;99.90;;;;;;5013613;28;20022;-49
2023/09/03 01:53:17;;;;;;;3.40;3.10;;;18.10;99.90;;;;;;5013331;28;20405;-49
2023/09/03 01:55:49;;;;;;;5.78;3.75;;;18.00;99.90;;;;;;5013481;28;20030;-45
2023/09/03 01:58:16;;;;;;;7.78;2.90;;;18.00;99.90;;;;;;5013549;28;20030;-48
2023/09/03 02:00:42;;;;;;;6.85;3.10;;;18.00;99.90;;;;;;5013301;28;20032;-48
2023/09/03 02:03:10;;;;;;;6.78;3.08;;;17.90;99.90;;;;;;5013294;28;20030;-48
2023/09/03 02:05:36;;;;;;;5.63;3.42;;;17.90;99.90;;;;;;5013317;28;20401;-49
2023/09/03 02:08:01;;;;;;;6.25;3.13;;;17.80;99.90;;;;;;5013237;28;20030;-47
2023/09/03 02:10:27;;;;;;;4.75;3.10;;;17.80;99.90;;;;;;5013077;28;20022;-49
2023/09/03 02:12:52;;;;;;;7.93;3.45;;;17.70;99.90;;;;;;5013124;28;20080;-48
2023/09/03 02:15:18;;;;;;;3.30;2.70;;;17.70;99.90;;;;;;5013284;28;20022;-44
2023/09/03 02:17:43;;;;;;;4.05;3.17;;;17.60;99.90;;;;;;5013188;28;20398;-48
2023/09/03 02:20:09;;;;;;;6.93;4.10;;;17.60;99.90;;;;;;5012936;28;20405;-51
2023/09/03 02:22:35;;;;;;;8.73;3.53;;;17.50;99.90;;;;;;5012763;28;20676;-53
2023/09/03 02:25:00;;;;;;;6.38;3.08;;;17.60;99.90;;;;;;5011872;28;20054;-47
2023/09/03 02:27:26;;;;;;;10.27;3.00;;;17.60;99.90;;;;;;5013087;28;20025;-47
2023/09/03 02:29:51;;;;;;;4.80;3.30;;;17.50;99.90;;;;;;5012788;28;20404;-50
2023/09/03 02:32:17;;;;;;;9.90;3.83;;;17.50;99.90;;;;;;5012660;28;20497;-47
2023/09/03 02:34:42;;;;;;;4.55;3.97;;;17.40;99.90;;;;;;5012828;28;20141;-47
2023/09/03 02:37:08;;;;;;;5.10;3.33;;;17.50;99.90;;;;;;5012690;28;20041;-49
2023/09/03 02:39:33;;;;;;;5.88;4.07;;;17.50;99.90;;;;;;5012748;28;20037;-52
2023/09/03 02:41:59;;;;;;;6.05;3.20;;;17.40;99.90;;;;;;5012225;28;20026;-47
2023/09/03 02:44:24;;;;;;;6.20;3.13;;;17.40;99.90;;;;;;5012600;28;20032;-47
2023/09/03 02:46:52;;;;;;;4.88;3.40;;;17.40;99.90;;;;;;5012661;28;20115;-47
2023/09/03 02:49:17;;;;;;;7.50;3.75;;;17.30;99.90;;;;;;5012670;28;20022;-49
2023/09/03 02:51:43;;;;;;;4.22;3.83;;;17.30;99.90;;;;;;5012306;28;20032;-47
2023/09/03 02:54:08;;;;;;;7.57;3.22;;;17.20;99.90;;;;;;5012644;28;20414;-48
2023/09/03 02:56:34;;;;;;;13.73;4.55;;;17.20;99.90;;;;;;5013818;28;20018;-51
2023/09/03 02:59:00;;;;;;;3.88;3.10;;;17.20;99.90;;;;;;5012424;28;20413;-47
2023/09/03 03:01:25;;;;;;;7.40;3.42;;;17.30;99.90;;;;;;5012017;28;20546;-47
2023/09/03 03:03:51;;;;;;;4.78;3.30;;;17.30;99.90;;;;;;5012260;28;20037;-48
2023/09/03 03:06:16;;;;;;;7.78;3.45;;;17.30;99.90;;;;;;5012355;28;20026;-52
2023/09/03 03:08:43;;;;;;;5.30;3.38;;;17.30;99.90;;;;;;5012125;28;20506;-44
2023/09/03 03:11:10;;;;;;;9.43;3.13;;;17.30;99.90;;;;;;5012035;28;20022;-46
2023/09/03 03:13:38;;;;;;;9.52;3.30;;;17.30;99.90;;;;;;5012261;28;20018;-47
2023/09/03 03:16:08;;;;;;;4.20;3.10;;;17.30;99.90;;;;;;5012999;28;20033;-47
2023/09/03 03:18:35;;;;;;;3.63;3.20;;;17.30;99.90;;;;;;5011809;28;20065;-47
2023/09/03 03:21:14;;;;;;;3.97;3.25;;;17.30;99.90;;;;;;5011865;28;20056;-53
2023/09/03 03:23:40;;;;;;;8.90;4.35;;;17.40;99.90;;;;;;5011934;28;20030;-48
2023/09/03 03:26:06;;;;;;;5.28;3.33;;;17.30;99.90;;;;;;5012020;28;20498;-49
2023/09/03 03:28:33;;;;;;;2.67;2.47;;;17.40;99.90;;;;;;5011769;28;20044;-50
2023/09/03 03:31:19;;;;;;;6.50;3.15;;;17.40;99.90;;;;;;5011551;28;20638;-48
2023/09/03 03:33:46;;;;;;;16.48;4.43;;;17.30;99.90;;;;;;5011777;28;20490;-47
2023/09/03 03:36:17;;;;;;;3.60;3.00;;;17.30;99.90;;;;;;5011547;28;20030;-47
2023/09/03 03:38:43;;;;;;;3.80;3.17;;;17.20;99.90;;;;;;5011879;28;20026;-47
2023/09/03 03:41:13;;;;;;;8.02;3.20;;;17.20;99.90;;;;;;5011165;28;20049;-47
2023/09/03 03:43:41;;;;;;;4.55;3.50;;;17.20;99.90;;;;;;4995139;28;20038;-48
2023/09/03 03:46:08;;;;;;;7.35;3.63;;;17.20;99.90;;;;;;5011553;28;20026;-47
2023/09/03 03:48:35;;;;;;;7.43;4.38;;;17.10;99.90;;;;;;5011286;28;20116;-50
2023/09/03 03:51:01;;;;;;;5.57;4.45;;;17.10;99.90;;;;;;5011418;28;20026;-49
2023/09/03 03:53:27;;;;;;;5.38;3.72;;;17.10;99.90;;;;;;5011476;28;20026;-47
2023/09/03 03:56:04;;;;;;;4.05;3.65;;;17.10;99.90;;;;;;5011527;28;20032;-51
2023/09/03 03:58:31;;;;;;;6.10;3.70;;;17.10;99.90;;;;;;5011338;28;20084;-47
2023/09/03 04:00:57;;;;;;;3.75;3.40;;;17.00;99.90;;;;;;5011196;28;20116;-47
2023/09/03 04:03:24;;;;;;;5.40;3.50;;;17.10;99.90;;;;;;5011486;28;20030;-47
2023/09/03 04:06:00;;;;;;;4.15;3.35;;;17.20;99.90;;;;;;5011294;28;20042;-47
2023/09/03 04:08:31;;;;;;;5.95;3.42;;;17.20;99.90;;;;;;5011449;28;20397;-48
2023/09/03 04:11:02;;;;;;;8.98;3.40;;;17.80;99.90;;;;;;5011837;28;20065;-48
2023/09/03 04:13:29;;;;;;;3.78;3.13;;;17.10;99.90;;;;;;5012018;28;20033;-45
2023/09/03 04:15:56;;;;;;;8.95;3.70;;;17.20;99.90;;;;;;5012820;28;20363;-46
2023/09/03 04:18:22;;;;;;;7.05;3.90;;;17.10;99.90;;;;;;5010897;28;20048;-48
2023/09/03 04:20:56;;;;;;;3.92;3.63;;;17.10;99.90;;;;;;5010689;28;20032;-47
2023/09/03 04:23:22;;;;;;;5.80;3.72;;;17.20;99.90;;;;;;5010606;28;20095;-56
2023/09/03 04:25:48;;;;;;;4.15;3.67;;;17.20;99.90;;;;;;5010925;28;20481;-47
2023/09/03 04:28:14;;;;;;;5.07;3.25;;;17.10;99.90;;;;;;5010612;28;20026;-48
2023/09/03 04:30:40;;;;;;;10.57;3.45;;;17.10;99.90;;;;;;5010470;28;20036;-47
2023/09/03 04:33:07;;;;;;;11.60;3.75;;;17.20;99.90;;;;;;5010507;28;20120;-47
2023/09/03 04:35:35;;;;;;;5.22;3.53;;;17.20;99.90;;;;;;5010646;28;20568;-48
2023/09/03 04:38:02;;;;;;;4.55;3.72;;;17.20;99.90;;;;;;5010594;28;20082;-47
2023/09/03 04:40:28;;;;;;;6.47;3.10;;;17.20;99.90;;;;;;5010445;28;20121;-51
2023/09/03 04:42:53;;;;;;;3.45;3.10;;;17.20;99.90;;;;;;5009968;28;20124;-47
2023/09/03 04:45:19;;;;;;;3.30;3.00;;;17.30;99.90;;;;;;5010389;28;20089;-48
2023/09/03 04:47:44;;;;;;;6.13;3.38;;;17.20;99.90;;;;;;5009703;28;20025;-47
2023/09/03 04:50:10;;;;;;;7.80;3.60;;;17.30;99.90;;;;;;5010190;28;20182;-53
2023/09/03 04:52:41;;;;;;;5.13;2.78;;;17.30;99.90;;;;;;5010308;28;20018;-45
2023/09/03 04:55:07;;;;;;;9.52;3.58;;;17.40;99.90;;;;;;5010508;28;20501;-49
2023/09/03 04:57:33;;;;;;;6.43;3.30;;;17.30;99.90;;;;;;5010288;28;20025;-47
2023/09/03 04:59:58;;;;;;;3.28;2.97;;;17.30;99.90;;;;;;5010232;28;20099;-50
2023/09/03 05:02:24;;;;;;;8.35;3.45;;;17.30;99.90;;;;;;5010229;28;20536;-48
2023/09/03 05:04:49;;;;;;;5.88;3.33;;;17.30;99.90;;;;;;5010407;28;20489;-48
2023/09/03 05:07:15;;;;;;;5.97;3.03;;;17.30;99.90;;;;;;5010281;28;20383;-48
2023/09/03 05:09:41;;;;;;;3.88;2.63;;;17.40;99.90;;;;;;5010180;28;20493;-45
2023/09/03 05:12:06;;;;;;;7.68;2.95;;;17.30;99.90;;;;;;5010080;28;20294;-49
2023/09/03 05:14:32;;;;;;;3.63;3.03;;;17.30;99.90;;;;;;5010275;28;20026;-47
2023/09/03 05:16:57;;;;;;;10.25;2.85;;;17.30;99.90;;;;;;5011651;28;20033;-49
2023/09/03 05:19:23;;;;;;;5.40;3.00;;;17.40;99.90;;;;;;5010295;28;20532;-51
2023/09/03 05:21:48;;;;;;;3.13;2.85;;;17.30;99.90;;;;;;5009971;28;20421;-47
2023/09/03 05:24:14;;;;;;;2.50;2.30;;;17.30;99.90;;;;;;5010341;28;20125;-49
2023/09/03 05:26:39;;;;;;;6.22;3.22;;;17.40;99.90;;;;;;5010088;28;20030;-50
2023/09/03 05:29:05;;;;;;;4.30;3.17;;;17.40;99.90;;;;;;5011387;28;20029;-50
2023/09/03 05:31:31;;;;;;;4.93;3.78;;;17.40;99.90;;;;;;5011045;28;20121;-49
2023/09/03 05:33:57;;;;;;;7.10;3.40;;;17.40;99.90;;;;;;5011472;28;20033;-47
2023/09/03 05:36:22;;;;;;;4.13;3.55;;;17.50;99.90;;;;;;5010086;28;20026;-49
2023/09/03 05:38:48;;;;;;;2.90;2.70;;;17.40;99.90;;;;;;5010234;28;20072;-53
2023/09/03 05:41:14;;;;;;;11.07;3.10;;;17.50;99.90;;;;;;5009569;28;20436;-50
2023/09/03 05:43:39;;;;;;;2.97;2.58;;;17.60;99.90;;;;;;4993676;28;20034;-46
2023/09/03 05:46:05;;;;;;;5.88;3.22;;;17.60;99.90;;;;;;5010102;28;20037;-47
2023/09/03 05:48:31;;;;;;;4.43;2.95;;;17.70;99.90;;;;;;4993701;28;20080;-50
2023/09/03 05:51:03;;;;;;;4.80;2.65;;;17.70;99.90;;;;;;5011180;28;20026;-53
2023/09/03 05:53:33;;;;;;;3.25;2.92;;;17.80;99.90;;;;;;5009706;28;20112;-48
2023/09/03 05:56:09;;;;;;;5.35;2.95;;;18.00;99.90;;;;;;5009968;28;20053;-48
2023/09/03 05:58:35;;;;;;;4.35;3.40;;;18.00;99.90;;;;;;5011694;28;20053;-48
2023/09/03 06:01:05;;;;;;;5.80;3.92;;;18.00;99.90;;;;;;5013227;28;20401;-48
2023/09/03 06:03:31;;;;;;;3.67;3.22;;;18.00;99.90;;;;;;5013128;28;20025;-52
2023/09/03 06:06:02;;;;;;;3.88;3.58;;;18.10;99.90;;;;;;5013231;28;20037;-52
2023/09/03 06:08:28;;;;;;;5.35;3.97;;;18.20;99.90;;;;;;5013198;28;20026;-48
2023/09/03 06:10:56;;;;;;;3.83;3.53;;;18.20;99.90;;;;;;5013013;28;20033;-50
2023/09/03 06:13:22;;;;;;;3.55;3.28;;;18.30;99.90;;;;;;5012942;28;20112;-48
2023/09/03 06:15:48;;;;;;;5.82;3.88;;;18.30;99.90;;;;;;5013330;28;20458;-49
2023/09/03 06:18:14;;;;;;;3.92;3.55;;;18.50;99.90;;;;;;5013002;28;20061;-48
2023/09/03 06:20:39;;;;;;;3.80;3.50;;;18.50;99.90;;;;;;5012689;28;20026;-52
2023/09/03 06:23:05;;;;;;;3.67;3.38;;;18.50;99.90;;;;;;5012707;28;20034;-47
2023/09/03 06:25:30;;;;;;;6.53;4.30;;;18.50;99.90;;;;;;5012961;28;20533;-49
2023/09/03 06:27:56;;;;;;;3.83;3.53;;;18.60;99.90;;;;;;4996375;28;20445;-51
2023/09/03 06:30:21;;;;;;;7.80;3.72;;;18.60;99.90;;;;;;5012390;28;20448;-49
2023/09/03 06:32:47;;;;;;;7.38;3.58;;;18.70;99.90;;;;;;5013289;28;20116;-49
2023/09/03 06:35:12;;;;;;;4.82;3.70;;;18.80;99.90;;;;;;5012648;28;20014;-45
2023/09/03 06:37:38;;;;;;;3.58;3.28;;;18.90;99.90;;;;;;5012779;28;20037;-52
2023/09/03 06:40:04;;;;;;;5.22;3.63;;;19.00;99.90;;;;;;4996299;28;20022;-49
2023/09/03 06:42:29;;;;;;;7.47;3.67;;;19.00;99.90;;;;;;5013545;28;20500;-49
2023/09/03 06:44:56;;;;;;;3.92;3.63;;;19.10;99.90;;;;;;5013904;28;20026;-48
2023/09/03 06:47:22;;;;;;;3.80;3.40;;;19.10;99.90;;;;;;5014003;28;20481;-45
2023/09/03 06:49:50;;;;;;;5.40;3.85;;;19.10;99.90;;;;;;5012570;28;20034;-52
2023/09/03 06:52:16;;;;;;;3.03;2.83;;;19.20;99.90;;;;;;5012523;28;20379;-47
2023/09/03 06:54:41;;;;;;;3.50;3.20;;;19.20;99.90;;;;;;5012598;28;20029;-46
2023/09/03 06:57:07;;;;;;;5.28;3.85;;;19.30;99.90;;;;;;5012463;28;20049;-49
2023/09/03 06:59:32;;;;;;;4.30;3.50;;;19.20;99.90;;;;;;5012320;28;20029;-49
2023/09/03 07:01:58;;;;;;;4.10;3.65;;;19.30;99.90;;;;;;5013353;28;20034;-47
2023/09/03 07:04:24;;;;;;;3.95;3.55;;;19.30;99.90;;;;;;4996168;28;20036;-47
2023/09/03 07:06:49;;;;;;;14.38;4.10;;;19.30;99.90;;;;;;4995997;28;20033;-46
2023/09/03 07:09:15;;;;;;;4.47;4.07;;;19.40;99.90;;;;;;5011742;28;20127;-47
2023/09/03 07:11:40;;;;;;;6.45;4.72;;;19.40;99.90;;;;;;5011802;28;20430;-47
2023/09/03 07:14:06;;;;;;;4.90;3.97;;;19.40;99.90;;;;;;5011948;28;20084;-48
2023/09/03 07:16:32;;;;;;;4.97;4.25;;;19.40;99.90;;;;;;5006016;28;20018;-49
2023/09/03 07:18:58;;;;;;;5.47;4.97;;;19.50;99.90;;;;;;4981072;28;20038;-46
2023/09/03 07:21:23;;;;;;;8.88;5.20;;;19.60;99.90;;;;;;5006106;28;20573;-51
2023/09/03 07:23:49;;;;;;;5.82;5.20;;;20.10;99.90;;;;;;5011896;28;20117;-48
2023/09/03 07:26:15;;;;;;;8.40;5.53;;;20.50;99.90;;;;;;4995650;28;20378;-50
2023/09/03 07:28:41;;;;;;;10.35;6.63;;;21.10;99.90;;;;;;5011853;28;20028;-47
2023/09/03 07:31:06;;;;;;;8.95;5.80;;;21.50;99.90;;;;;;5010855;28;20458;-48
2023/09/03 07:33:32;;;;;;;10.70;6.82;;;21.30;99.90;;;;;;5011545;28;20036;-49
2023/09/03 07:35:58;;;;;;;9.65;7.00;;;21.30;99.90;;;;;;5008609;28;20089;-48
2023/09/03 07:38:25;;;;;;;10.18;8.98;;;21.40;99.90;;;;;;5011675;28;20038;-52
2023/09/03 07:40:50;;;;;;;11.95;9.57;;;21.50;99.90;;;;;;5011632;28;20026;-61
2023/09/03 07:43:16;;;;;;;13.77;9.63;;;21.50;99.90;;;;;;4995810;28;20347;-51
2023/09/03 07:45:42;;;;;;;14.32;9.75;;;21.20;99.90;;;;;;4992111;28;20301;-47
2023/09/03 07:48:07;;;;;;;12.82;8.82;;;21.40;99.90;;;;;;4991898;28;20035;-48
2023/09/03 07:50:33;;;;;;;14.23;7.95;;;21.70;99.90;;;;;;4993425;28;20030;-50
2023/09/03 07:52:59;;;;;;;14.80;8.63;;;21.90;99.90;;;;;;4991589;28;20080;-47
2023/09/03 07:55:24;;;;;;;15.88;8.57;;;22.10;99.90;;;;;;4991800;28;20019;-53
2023/09/03 07:57:50;;;;;;;8.70;7.60;;;22.10;99.90;;;;;;4991874;28;20023;-51
2023/09/03 08:00:15;;;;;;;10.57;8.23;;;22.30;99.90;;;;;;4975422;28;20027;-54
2023/09/03 08:02:41;;;;;;;12.48;8.90;;;22.60;99.90;;;;;;4975585;28;20165;-51
2023/09/03 08:05:11;;;;;;;12.65;8.77;;;22.60;99.90;;;;;;4991726;28;20393;-49
2023/09/03 08:07:36;;;;;;;14.20;8.82;;;22.50;99.90;;;;;;4991495;28;20030;-51
2023/09/03 08:10:02;;;;;;;15.57;9.15;;;22.30;99.90;;;;;;4991330;28;20110;-47
2023/09/03 08:12:28;;;;;;;12.70;10.43;;;22.30;99.90;;;;;;4991511;28;20026;-53
2023/09/03 08:14:53;;;;;;;12.18;9.80;;;22.20;99.90;;;;;;4992711;28;20077;-54
2023/09/03 08:17:20;;;;;;;11.75;8.93;;;22.10;99.90;;;;;;4993181;28;20085;-45
2023/09/03 08:19:47;;;;;;;11.55;8.77;;;22.00;99.90;;;;;;4999630;28;20025;-50
2023/09/03 08:22:12;;;;;;;10.13;8.93;;;22.00;99.90;;;;;;4993539;28;20030;-52
2023/09/03 08:24:38;;;;;;;13.13;9.63;;;21.90;99.90;;;;;;5010759;28;20026;-54
2023/09/03 08:27:03;;;;;;;10.48;9.32;;;22.00;99.90;;;;;;5012150;28;20036;-54
2023/09/03 08:29:29;;;;;;;15.07;11.10;;;22.10;99.90;;;;;;5010329;28;20057;-49
2023/09/03 08:31:55;;;;;;;12.73;8.70;;;22.20;99.90;;;;;;4994522;28;20493;-49
2023/09/03 08:34:20;;;;;;;35.22;25.30;;;22.50;99.90;;;;;;5011992;28;20022;-53
2023/09/03 08:36:46;;;;;;;18.48;13.63;;;22.70;99.90;;;;;;5010619;28;20022;-48
2023/09/03 08:39:11;;;;;;;11.35;9.57;;;23.00;99.90;;;;;;5011886;28;20149;-50
2023/09/03 08:41:39;;;;;;;15.15;8.75;;;23.30;99.90;;;;;;5012008;28;20033;-48
2023/09/03 08:44:11;;;;;;;10.20;7.43;;;23.80;99.90;;;;;;5011979;28;20026;-51
2023/09/03 08:46:39;;;;;;;8.93;7.97;;;24.30;99.90;;;;;;4995039;28;20021;-52
2023/09/03 08:49:06;;;;;;;9.27;7.80;;;24.80;99.90;;;;;;4977934;28;20513;-50
2023/09/03 08:51:32;;;;;;;10.73;7.18;;;25.40;99.90;;;;;;5010286;28;20034;-48
2023/09/03 08:53:59;;;;;;;8.23;7.00;;;25.90;99.90;;;;;;4994179;28;20022;-50
2023/09/03 08:56:25;;;;;;;7.88;6.95;;;26.20;99.90;;;;;;4993398;28;20026;-49
2023/09/03 08:58:50;;;;;;;9.18;6.43;;;26.20;99.90;;;;;;4992086;28;20034;-50
2023/09/03 09:01:17;;;;;;;7.57;6.57;;;26.30;99.90;;;;;;4989016;28;20515;-50
2023/09/03 09:03:44;;;;;;;8.25;6.70;;;26.80;99.90;;;;;;4990084;28;20022;-52
2023/09/03 09:06:12;;;;;;;7.53;6.00;;;27.00;99.90;;;;;;4990153;28;20486;-53
2023/09/03 09:08:39;;;;;;;8.00;6.43;;;27.10;99.90;;;;;;4973409;28;20058;-52
2023/09/03 09:11:10;;;;;;;8.95;6.65;;;26.90;99.90;;;;;;4992018;28;20038;-49
2023/09/03 09:13:41;;;;;;;8.02;7.22;;;26.70;99.90;;;;;;4990870;28;20023;-54
2023/09/03 09:16:06;;;;;;;8.93;6.90;;;26.50;99.90;;;;;;4991254;28;20019;-49
2023/09/03 09:18:32;;;;;;;8.23;7.28;;;25.90;99.90;;;;;;4990913;28;20509;-49
2023/09/03 09:20:59;;;;;;;8.20;7.43;;;25.50;99.90;;;;;;4974429;28;20510;-54
2023/09/03 09:23:26;;;;;;;8.00;7.20;;;25.10;99.90;;;;;;4974811;28;20379;-50
2023/09/03 09:25:55;;;;;;;8.82;7.30;;;25.00;99.90;;;;;;4991234;28;20059;-54
2023/09/03 09:28:21;;;;;;;7.30;6.60;;;24.70;99.90;;;;;;4974881;28;20033;-49
2023/09/03 09:30:55;;;;;;;7.82;7.07;;;24.50;99.90;;;;;;4991794;28;20490;-48
2023/09/03 09:33:21;;;;;;;7.60;6.90;;;24.60;99.90;;;;;;4992270;28;20113;-48
2023/09/03 09:35:47;;;;;;;7.47;6.80;;;24.80;99.90;;;;;;4994726;28;20053;-48
2023/09/03 09:38:13;;;;;;;8.52;6.85;;;25.00;99.90;;;;;;4994178;28;20037;-54
2023/09/03 09:40:39;;;;;;;7.07;6.00;;;25.00;99.90;;;;;;4994308;28;20113;-53
2023/09/03 09:43:07;;;;;;;8.00;7.20;;;25.20;99.90;;;;;;4994319;28;20081;-50
2023/09/03 09:45:44;;;;;;;8.80;7.53;;;25.00;99.90;;;;;;4995564;28;20398;-55
2023/09/03 09:48:10;;;;;;;8.18;7.38;;;25.10;99.90;;;;;;4993734;28;20038;-51
2023/09/03 09:50:38;;;;;;;10.23;7.32;;;24.80;99.90;;;;;;4995216;28;20028;-50
2023/09/03 09:53:05;;;;;;;8.73;6.38;;;24.80;99.90;;;;;;4994236;28;20030;-50
2023/09/03 09:55:34;;;;;;;10.52;7.35;;;24.60;99.90;;;;;;4977703;28;20050;-49
2023/09/03 09:58:00;;;;;;;9.13;7.50;;;24.60;99.90;;;;;;4996821;28;20029;-55
2023/09/03 10:00:35;;;;;;;32.03;25.98;;;24.70;99.90;;;;;;5003955;28;20096;-51
2023/09/03 10:03:02;;;;;;;14.13;11.52;;;24.60;99.90;;;;;;5007027;28;20429;-50
2023/09/03 10:05:28;;;;;;;8.45;6.65;;;24.50;99.90;;;;;;4993088;28;20065;-52
2023/09/03 10:07:54;;;;;;;8.70;6.97;;;24.40;99.90;;;;;;5014422;28;20041;-52
2023/09/03 10:10:21;;;;;;;7.43;5.88;;;24.50;99.90;;;;;;5008790;28;20026;-49
2023/09/03 10:12:46;;;;;;;6.60;6.00;;;24.40;99.90;;;;;;4993867;28;20397;-53
2023/09/03 10:15:15;;;;;;;8.60;7.20;;;24.50;99.90;;;;;;5007125;28;20018;-56
2023/09/03 10:17:43;;;;;;;12.70;7.53;;;24.50;99.90;;;;;;5000192;28;20397;-52
2023/09/03 10:20:14;;;;;;;8.52;7.38;;;24.30;99.90;;;;;;5009410;28;20030;-50
2023/09/03 10:22:41;;;;;;;9.00;6.60;;;24.20;99.90;;;;;;5012918;28;20022;-53
2023/09/03 10:25:11;;;;;;;14.20;8.25;;;24.40;99.90;;;;;;5013011;28;20397;-48
2023/09/03 10:27:41;;;;;;;9.07;6.72;;;24.50;99.90;;;;;;4996819;28;20026;-53
2023/09/03 10:30:09;;;;;;;11.20;8.57;;;24.70;99.90;;;;;;5012960;28;20401;-53
2023/09/03 10:32:36;;;;;;;9.95;8.95;;;24.80;99.90;;;;;;4995988;28;20041;-50
2023/09/03 10:35:12;;;;;;;6.93;6.30;;;24.70;99.90;;;;;;4988010;28;20022;-51
2023/09/03 10:37:39;;;;;;;9.10;6.90;;;24.80;99.90;;;;;;5012041;28;20524;-51
2023/09/03 10:40:21;;;;;;;13.38;7.68;;;24.90;99.90;;;;;;5007907;28;20026;-51
2023/09/03 10:42:51;;;;;;;8.13;7.32;;;24.90;99.90;;;;;;5012302;28;20036;-49
2023/09/03 10:45:18;;;;;;;9.40;6.93;;;24.80;99.90;;;;;;5010928;28;20033;-49
2023/09/03 10:47:56;;;;;;;9.57;6.93;;;24.50;99.90;;;;;;5007991;28;20604;-50
2023/09/03 10:50:50;;;;;;;9.50;7.05;;;24.30;99.90;;;;;;5012205;28;20501;-51
2023/09/03 10:53:39;;;;;;;6.95;6.35;;;24.40;99.90;;;;;;5003259;28;20026;-51
2023/09/03 10:56:17;;;;;;;7.47;6.25;;;24.30;99.90;;;;;;4992767;28;20030;-50
2023/09/03 10:58:56;;;;;;;6.63;6.03;;;24.30;99.90;;;;;;4992743;28;20050;-48
2023/09/03 11:01:31;;;;;;;6.78;6.03;;;24.20;99.90;;;;;;4992503;28;20026;-53
2023/09/03 11:04:02;;;;;;;7.95;7.00;;;24.20;99.90;;;;;;5006008;28;20014;-53
2023/09/03 11:06:31;;;;;;;6.45;5.85;;;24.20;99.90;;;;;;5012046;28;20457;-55
2023/09/03 11:09:06;;;;;;;8.52;7.43;;;24.00;99.90;;;;;;5007026;28;20034;-52
2023/09/03 11:11:36;;;;;;;7.75;6.95;;;23.90;99.90;;;;;;4992394;28;20529;-46
2023/09/03 11:14:03;;;;;;;6.75;6.07;;;23.80;99.90;;;;;;4999935;28;20032;-50
2023/09/03 11:16:30;;;;;;;7.78;6.57;;;23.90;99.90;;;;;;5012177;28;20028;-48
2023/09/03 11:18:56;;;;;;;7.40;6.60;;;24.00;99.90;;;;;;5012138;28;20025;-51
2023/09/03 11:21:25;;;;;;;8.10;7.30;;;24.10;99.90;;;;;;4997287;28;20053;-48
2023/09/03 11:23:58;;;;;;;7.78;7.03;;;23.90;99.90;;;;;;5010791;28;20065;-50
2023/09/03 11:26:24;;;;;;;9.63;8.18;;;23.80;99.90;;;;;;5011191;28;20061;-50
2023/09/03 11:28:49;;;;;;;18.33;13.18;;;23.60;99.90;;;;;;5013313;28;20065;-50
2023/09/03 11:31:15;;;;;;;13.38;9.35;;;23.70;99.90;;;;;;4982187;28;20041;-49
2023/09/03 11:33:40;;;;;;;7.88;7.07;;;23.70;99.90;;;;;;4992003;28;20030;-49
2023/09/03 11:36:06;;;;;;;6.80;6.18;;;23.60;99.90;;;;;;4993648;28;20117;-50
2023/09/03 11:38:33;;;;;;;6.63;5.97;;;23.70;99.90;;;;;;4975726;28;20072;-50
2023/09/03 11:40:59;;;;;;;6.55;5.88;;;23.80;99.90;;;;;;4992408;28;20045;-52
2023/09/03 11:43:28;;;;;;;6.22;5.60;;;23.60;99.90;;;;;;5004807;28;20025;-51
2023/09/03 11:45:54;;;;;;;7.28;5.70;;;23.60;99.90;;;;;;5011912;28;20026;-54
2023/09/03 11:48:27;;;;;;;10.10;7.53;;;23.70;99.90;;;;;;4995147;28;20041;-51
2023/09/03 11:50:54;;;;;;;9.38;5.40;;;23.90;99.90;;;;;;5011730;28;20164;-48
2023/09/03 11:53:20;;;;;;;6.07;5.53;;;23.90;99.90;;;;;;5011658;28;20030;-53
2023/09/03 11:55:52;;;;;;;6.70;6.07;;;24.00;99.90;;;;;;5011611;28;20022;-54
2023/09/03 11:58:21;;;;;;;7.82;6.03;;;24.00;99.90;;;;;;5012664;28;20026;-51
2023/09/03 12:00:47;;;;;;;7.03;6.35;;;23.80;99.90;;;;;;5011210;28;20084;-48
2023/09/03 12:03:13;;;;;;;7.70;6.65;;;23.90;99.90;;;;;;5011288;28;20121;-49
2023/09/03 12:05:39;;;;;;;6.70;6.03;;;23.80;99.90;;;;;;4995325;28;20052;-50
2023/09/03 12:08:06;;;;;;;7.03;6.32;;;23.70;99.90;;;;;;5012398;28;20029;-48
2023/09/03 12:10:32;;;;;;;6.60;5.70;;;23.70;99.90;;;;;;5011137;28;20108;-50
2023/09/03 12:12:59;;;;;;;7.65;6.03;;;23.90;99.90;;;;;;5011285;28;20018;-48
2023/09/03 12:15:26;;;;;;;7.05;6.35;;;23.80;99.90;;;;;;5011035;28;20076;-49
2023/09/03 12:17:52;;;;;;;6.10;5.60;;;23.90;99.90;;;;;;5011042;28;20030;-47
2023/09/03 12:20:37;;;;;;;6.60;5.50;;;24.00;99.90;;;;;;4978884;28;20092;-46
2023/09/03 12:23:06;;;;;;;;;;;23.80;99.90;;;;;;4991853;28;20045;-49
2023/09/03 12:25:33;;;;;;;5.97;5.45;;;23.90;99.90;;;;;;4992763;28;19906;-46
2023/09/03 12:27:59;;;;;;;6.15;5.55;;;24.00;99.90;;;;;;4975335;28;20030;-54
2023/09/03 12:30:24;;;;;;;6.45;5.85;;;23.90;99.90;;;;;;4991140;28;20394;-50
2023/09/03 12:32:53;;;;;;;8.07;5.70;;;24.00;99.90;;;;;;4982727;28;20034;-48
2023/09/03 12:35:19;;;;;;;5.85;5.28;;;23.90;99.90;;;;;;4994400;28;20037;-48
2023/09/03 12:37:45;;;;;;;7.63;6.82;;;23.90;99.90;;;;;;4990127;28;20034;-49
2023/09/03 12:40:10;;;;;;;6.28;5.65;;;23.90;99.90;;;;;;4989616;28;20494;-50
2023/09/03 12:42:36;;;;;;;7.05;6.35;;;23.90;99.90;;;;;;5006206;28;20026;-53
2023/09/03 12:45:02;;;;;;;6.10;5.43;;;23.90;99.90;;;;;;4990505;28;20030;-53
2023/09/03 12:47:27;;;;;;;6.30;5.13;;;23.80;99.90;;;;;;4989995;28;20031;-52